createdAt,value
2018-07-26T00:00:18.267Z,23.69
2018-07-26T00:02:46.555Z,23.76
2018-07-26T00:05:14.601Z,23.87
2018-07-26T00:07:42.126Z,23.84
2018-07-26T00:10:09.629Z,23.86
2018-07-26T00:12:38.832Z,23.80
2018-07-26T00:15:09.048Z,23.75
2018-07-26T00:20:27.539Z,23.66
2018-07-26T00:22:55.413Z,23.60
2018-07-26T00:25:24.504Z,23.57
2018-07-26T00:27:52.548Z,23.50
2018-07-26T00:30:19.852Z,23.36
2018-07-26T00:32:47.254Z,23.23
2018-07-26T00:35:14.819Z,23.11
2018-07-26T00:37:42.721Z,22.99
2018-07-26T00:40:10.063Z,22.85
2018-07-26T00:42:38.961Z,22.79
2018-07-26T00:45:07.133Z,22.71
2018-07-26T00:47:34.579Z,22.62
2018-07-26T00:50:01.906Z,22.55
2018-07-26T00:52:29.297Z,22.47
2018-07-26T00:54:56.916Z,22.38
2018-07-26T00:57:24.420Z,22.32
2018-07-26T00:59:53.169Z,22.27
2018-07-26T01:02:20.685Z,22.20
2018-07-26T01:04:48.140Z,22.12
2018-07-26T01:07:15.731Z,22.10
2018-07-26T01:09:44.713Z,22.01
2018-07-26T01:12:12.155Z,21.85
2018-07-26T01:14:39.515Z,21.74
2018-07-26T01:17:06.960Z,21.65
2018-07-26T01:19:34.497Z,21.57
2018-07-26T01:22:02.546Z,21.47
2018-07-26T01:24:30.767Z,21.39
2018-07-26T01:26:58.467Z,21.29
2018-07-26T01:29:25.924Z,21.33
2018-07-26T01:31:54.076Z,21.29
2018-07-26T01:34:22.873Z,21.22
2018-07-26T01:36:50.676Z,21.18
2018-07-26T01:39:20.451Z,21.11
2018-07-26T01:41:48.291Z,21.02
2018-07-26T01:44:24.105Z,20.93
2018-07-26T01:46:52.327Z,20.74
2018-07-26T01:49:22.770Z,20.56
2018-07-26T01:51:50.668Z,20.42
2018-07-26T01:54:18.031Z,20.34
2018-07-26T01:56:45.519Z,20.30
2018-07-26T01:59:12.862Z,20.36
2018-07-26T02:01:40.268Z,20.35
2018-07-26T02:04:08.229Z,20.32
2018-07-26T02:06:35.693Z,20.31
2018-07-26T02:09:07.422Z,20.32
2018-07-26T02:11:35.179Z,20.15
2018-07-26T02:14:03.010Z,20.06
2018-07-26T02:16:30.603Z,19.94
2018-07-26T02:18:58.213Z,19.92
2018-07-26T02:21:25.745Z,19.92
2018-07-26T02:23:53.902Z,19.87
2018-07-26T02:26:22.098Z,19.82
2018-07-26T02:28:50.014Z,19.78
2018-07-26T02:31:17.601Z,19.75
2018-07-26T02:33:45.821Z,19.67
2018-07-26T02:36:13.986Z,19.61
2018-07-26T02:38:42.496Z,19.55
2018-07-26T02:41:10.153Z,19.51
2018-07-26T02:43:37.798Z,19.40
2018-07-26T02:46:07.728Z,19.25
2018-07-26T02:48:35.469Z,19.14
2018-07-26T02:51:03.020Z,19.10
2018-07-26T02:53:30.933Z,19.04
2018-07-26T02:56:00.188Z,19.03
2018-07-26T02:58:28.643Z,18.98
2018-07-26T03:00:58.830Z,18.98
2018-07-26T03:03:28.041Z,18.97
2018-07-26T03:05:56.569Z,18.97
2018-07-26T03:08:25.291Z,18.93
2018-07-26T03:10:52.749Z,18.90
2018-07-26T03:13:20.272Z,18.88
2018-07-26T03:15:49.243Z,18.90
2018-07-26T03:18:16.793Z,18.92
2018-07-26T03:20:47.994Z,18.90
2018-07-26T03:23:18.721Z,18.90
2018-07-26T03:25:47.912Z,18.92
2018-07-26T03:28:15.439Z,18.96
2018-07-26T03:30:43.467Z,18.97
2018-07-26T03:33:11.891Z,19.02
2018-07-26T03:35:40.031Z,18.99
2018-07-26T03:38:08.571Z,18.92
2018-07-26T03:40:42.372Z,18.89
2018-07-26T03:43:11.337Z,18.86
2018-07-26T03:45:39.664Z,18.84
2018-07-26T03:48:09.894Z,18.84
2018-07-26T03:50:39.129Z,18.85
2018-07-26T03:53:07.633Z,18.86
2018-07-26T03:55:36.396Z,18.93
2018-07-26T03:58:18.905Z,19.00
2018-07-26T04:00:46.804Z,19.07
2018-07-26T04:03:14.363Z,19.11
2018-07-26T04:05:42.071Z,19.16
2018-07-26T04:08:12.224Z,19.20
2018-07-26T04:10:41.118Z,19.22
2018-07-26T04:13:15.370Z,19.20
2018-07-26T04:15:42.848Z,19.23
2018-07-26T04:18:11.643Z,19.25
2018-07-26T04:20:42.315Z,19.26
2018-07-26T04:23:11.727Z,19.24
2018-07-26T04:25:40.336Z,19.27
2018-07-26T04:28:09.915Z,19.29
2018-07-26T04:30:38.626Z,19.33
2018-07-26T04:33:08.430Z,19.43
2018-07-26T04:35:35.969Z,19.52
2018-07-26T04:38:03.763Z,19.64
2018-07-26T04:40:31.856Z,19.78
2018-07-26T04:42:59.237Z,19.93
2018-07-26T04:45:26.656Z,20.08
2018-07-26T04:47:54.238Z,20.19
2018-07-26T04:50:21.682Z,20.34
2018-07-26T04:52:49.720Z,20.52
2018-07-26T04:55:17.342Z,20.86
2018-07-26T04:57:44.835Z,21.16
2018-07-26T05:00:12.234Z,21.39
2018-07-26T05:02:39.558Z,21.61
2018-07-26T05:05:07.660Z,21.83
2018-07-26T05:07:35.027Z,22.05
2018-07-26T05:10:02.586Z,22.25
2018-07-26T05:12:29.896Z,22.46
2018-07-26T05:14:57.379Z,22.67
2018-07-26T05:17:24.801Z,22.91
2018-07-26T05:19:52.222Z,23.15
2018-07-26T05:22:19.781Z,23.39
2018-07-26T05:24:47.176Z,23.66
2018-07-26T05:27:14.604Z,23.89
2018-07-26T05:29:43.231Z,23.95
2018-07-26T05:32:11.259Z,24.18
2018-07-26T05:34:39.460Z,24.47
2018-07-26T05:37:06.866Z,24.72
2018-07-26T05:39:34.264Z,25.01
2018-07-26T05:42:01.644Z,25.21
2018-07-26T05:44:29.623Z,25.45
2018-07-26T05:46:57.334Z,25.79
2018-07-26T05:49:24.857Z,26.03
2018-07-26T05:51:52.260Z,26.22
2018-07-26T05:54:19.906Z,26.54
2018-07-26T05:56:48.493Z,26.74
2018-07-26T05:59:16.074Z,26.95
2018-07-26T06:01:43.431Z,27.17
2018-07-26T06:04:10.795Z,27.35
2018-07-26T06:06:38.390Z,27.54
2018-07-26T06:09:10.674Z,27.79
2018-07-26T06:11:38.160Z,28.08
2018-07-26T06:14:05.965Z,28.36
2018-07-26T06:16:33.384Z,28.47
2018-07-26T06:19:00.738Z,28.78
2018-07-26T06:21:28.639Z,28.57
2018-07-26T06:23:56.030Z,28.86
2018-07-26T06:26:23.439Z,28.93
2018-07-26T06:28:51.703Z,28.89
2018-07-26T06:31:19.098Z,29.10
2018-07-26T06:33:46.531Z,29.47
2018-07-26T06:36:14.053Z,29.73
2018-07-26T06:38:41.410Z,30.08
2018-07-26T06:41:09.290Z,30.32
2018-07-26T06:43:36.737Z,30.45
2018-07-26T06:46:04.262Z,30.42
2018-07-26T06:48:32.774Z,30.41
2018-07-26T06:51:00.233Z,29.86
2018-07-26T06:53:28.638Z,29.43
2018-07-26T06:55:57.298Z,29.17
2018-07-26T06:58:25.410Z,29.47
2018-07-26T07:00:55.603Z,29.73
2018-07-26T07:03:22.958Z,29.62
2018-07-26T07:05:50.359Z,29.58
2018-07-26T07:08:24.481Z,29.85
2018-07-26T07:10:51.998Z,29.91
2018-07-26T07:13:19.638Z,29.72
2018-07-26T07:15:47.272Z,29.91
2018-07-26T07:18:15.887Z,29.99
2018-07-26T07:20:44.031Z,29.88
2018-07-26T07:23:12.613Z,30.00
2018-07-26T07:25:40.722Z,30.10
2018-07-26T07:28:08.211Z,30.06
2018-07-26T07:30:35.737Z,30.14
2018-07-26T07:33:04.119Z,30.28
2018-07-26T07:35:32.279Z,30.82
2018-07-26T07:38:00.893Z,30.91
2018-07-26T07:40:29.081Z,30.95
2018-07-26T07:42:56.389Z,30.84
2018-07-26T07:45:23.843Z,31.01
2018-07-26T07:47:51.275Z,30.59
2018-07-26T07:50:18.714Z,31.08
2018-07-26T07:52:46.044Z,31.36
2018-07-26T07:55:13.667Z,31.56
2018-07-26T07:57:40.995Z,31.71
2018-07-26T08:00:08.974Z,31.59
2018-07-26T08:02:37.099Z,31.75
2018-07-26T08:05:04.761Z,31.70
2018-07-26T08:07:32.378Z,32.01
2018-07-26T08:09:59.864Z,32.79
2018-07-26T08:12:28.050Z,33.04
2018-07-26T08:14:59.168Z,32.57
2018-07-26T08:17:27.265Z,33.05
2018-07-26T08:19:54.879Z,33.43
2018-07-26T08:22:22.169Z,33.50
2018-07-26T08:24:49.448Z,33.73
2018-07-26T08:27:16.817Z,34.38
2018-07-26T08:29:44.049Z,34.42
2018-07-26T08:32:11.335Z,34.38
2018-07-26T08:34:38.617Z,33.77
2018-07-26T08:37:06.001Z,33.47
2018-07-26T08:39:33.311Z,33.45
2018-07-26T08:42:00.623Z,33.51
2018-07-26T08:44:27.975Z,34.07
2018-07-26T08:46:55.499Z,34.30
2018-07-26T08:49:23.062Z,33.79
2018-07-26T08:52:00.159Z,33.99
2018-07-26T08:54:27.663Z,34.32
2018-07-26T08:56:55.375Z,34.27
2018-07-26T08:59:22.848Z,33.67
2018-07-26T09:01:50.366Z,33.22
2018-07-26T09:04:17.742Z,32.38
2018-07-26T09:06:45.117Z,31.92
2018-07-26T09:09:13.511Z,32.01
2018-07-26T09:11:41.359Z,32.42
2018-07-26T09:14:09.306Z,31.74
2018-07-26T09:16:36.755Z,32.08
2018-07-26T09:19:04.355Z,32.90
2018-07-26T09:21:32.632Z,33.44
2018-07-26T09:24:00.862Z,33.91
2018-07-26T09:26:29.105Z,33.67
2018-07-26T09:28:56.610Z,33.47
2018-07-26T09:31:24.243Z,34.13
2018-07-26T09:33:51.788Z,34.24
2018-07-26T09:36:20.113Z,34.51
2018-07-26T09:38:48.158Z,34.54
2018-07-26T09:41:15.494Z,34.51
2018-07-26T09:43:43.435Z,34.28
2018-07-26T09:46:11.262Z,33.91
2018-07-26T09:48:40.617Z,33.88
2018-07-26T09:51:08.037Z,34.13
2018-07-26T09:53:35.440Z,34.21
2018-07-26T09:56:02.829Z,34.91
2018-07-26T09:58:30.108Z,34.81
2018-07-26T10:01:03.286Z,34.39
2018-07-26T10:03:31.026Z,34.38
2018-07-26T10:05:58.473Z,35.16
2018-07-26T10:08:25.917Z,35.61
2018-07-26T10:10:53.647Z,35.55
2018-07-26T10:13:21.138Z,35.80
2018-07-26T10:15:48.546Z,36.28
2018-07-26T10:18:16.037Z,35.70
2018-07-26T10:20:43.698Z,35.28
2018-07-26T10:23:11.257Z,34.97
2018-07-26T10:25:38.657Z,35.09
2018-07-26T10:28:07.163Z,34.93
2018-07-26T10:30:34.520Z,34.29
2018-07-26T10:33:02.093Z,33.49
2018-07-26T10:35:29.737Z,33.91
2018-07-26T10:37:58.599Z,34.64
2018-07-26T10:40:26.232Z,35.01
2018-07-26T10:42:53.829Z,34.96
2018-07-26T10:45:21.255Z,35.07
2018-07-26T10:47:48.683Z,35.60
2018-07-26T10:50:16.219Z,35.94
2018-07-26T10:52:43.604Z,36.34
2018-07-26T10:55:11.031Z,35.79
2018-07-26T10:57:38.884Z,36.15
2018-07-26T11:00:08.018Z,35.67
2018-07-26T11:02:35.858Z,35.74
2018-07-26T11:05:03.876Z,35.88
2018-07-26T11:07:31.390Z,36.06
2018-07-26T11:09:58.607Z,35.97
2018-07-26T11:12:25.880Z,36.47
2018-07-26T11:14:54.418Z,36.23
2018-07-26T11:17:21.742Z,36.01
2018-07-26T11:19:49.031Z,35.48
2018-07-26T11:22:16.297Z,36.41
2018-07-26T11:24:49.123Z,36.31
2018-07-26T11:27:16.449Z,35.57
2018-07-26T11:29:43.766Z,36.27
2018-07-26T11:32:12.795Z,36.43
2018-07-26T11:34:40.094Z,35.27
2018-07-26T11:37:07.542Z,35.42
2018-07-26T11:39:34.826Z,35.90
2018-07-26T11:42:02.154Z,36.07
2018-07-26T11:44:29.450Z,36.30
2018-07-26T11:46:56.703Z,36.16
2018-07-26T11:49:23.960Z,36.46
2018-07-26T11:51:51.207Z,36.52
2018-07-26T11:54:18.502Z,35.83
2018-07-26T11:56:45.952Z,35.97
2018-07-26T11:59:13.274Z,35.50
2018-07-26T12:01:40.606Z,34.94
2018-07-26T12:04:07.850Z,35.56
2018-07-26T12:06:35.146Z,35.94
2018-07-26T12:09:02.489Z,36.14
2018-07-26T12:11:29.708Z,35.44
2018-07-26T12:13:56.998Z,34.78
2018-07-26T12:16:24.250Z,35.90
2018-07-26T12:18:51.529Z,36.68
2018-07-26T12:21:18.800Z,36.43
2018-07-26T12:23:46.090Z,34.49
2018-07-26T12:26:13.381Z,34.19
2018-07-26T12:28:40.663Z,33.87
2018-07-26T12:31:08.510Z,34.31
2018-07-26T12:33:37.691Z,34.71
2018-07-26T12:36:12.400Z,35.08
2018-07-26T12:38:39.665Z,35.33
2018-07-26T12:41:07.043Z,35.23
2018-07-26T12:43:34.361Z,35.95
2018-07-26T12:46:01.697Z,36.41
2018-07-26T12:48:28.947Z,36.30
2018-07-26T12:50:56.184Z,36.06
2018-07-26T12:53:23.482Z,35.46
2018-07-26T12:55:50.723Z,35.00
2018-07-26T12:58:18.009Z,35.26
2018-07-26T13:00:45.326Z,36.08
2018-07-26T13:03:12.564Z,35.99
2018-07-26T13:05:43.023Z,35.36
2018-07-26T13:08:10.263Z,35.66
2018-07-26T13:10:37.540Z,35.85
2018-07-26T13:13:04.899Z,35.87
2018-07-26T13:15:32.352Z,36.25
2018-07-26T13:18:06.946Z,36.16
2018-07-26T13:20:34.309Z,35.81
2018-07-26T13:23:01.548Z,35.84
2018-07-26T13:25:28.890Z,34.74
2018-07-26T13:27:56.235Z,34.28
2018-07-26T13:30:23.492Z,34.56
2018-07-26T13:32:50.770Z,35.21
2018-07-26T13:35:18.085Z,35.32
2018-07-26T13:37:45.316Z,34.88
2018-07-26T13:40:12.612Z,34.63
2018-07-26T13:42:39.867Z,34.74
2018-07-26T13:45:08.002Z,34.94
2018-07-26T13:47:37.470Z,34.93
2018-07-26T13:50:04.932Z,34.83
2018-07-26T13:52:32.202Z,35.30
2018-07-26T13:54:59.488Z,34.45
2018-07-26T13:57:27.066Z,34.56
2018-07-26T13:59:54.377Z,34.93
2018-07-26T14:02:21.626Z,34.51
2018-07-26T14:04:49.046Z,33.85
2018-07-26T14:07:23.023Z,34.29
2018-07-26T14:09:51.847Z,33.63
2018-07-26T14:12:19.171Z,34.27
2018-07-26T14:14:46.502Z,33.71
2018-07-26T14:17:13.927Z,33.74
2018-07-26T14:19:41.271Z,34.33
2018-07-26T14:22:08.596Z,34.27
2018-07-26T14:24:36.213Z,33.96
2018-07-26T14:27:03.995Z,34.27
2018-07-26T14:29:31.728Z,34.06
2018-07-26T14:31:59.078Z,34.07
2018-07-26T14:34:26.535Z,33.94
2018-07-26T14:36:54.143Z,33.52
2018-07-26T14:39:21.577Z,33.46
2018-07-26T14:41:48.867Z,33.21
2018-07-26T14:44:16.118Z,33.28
2018-07-26T14:46:43.397Z,33.25
2018-07-26T14:49:10.723Z,33.02
2018-07-26T14:51:38.127Z,32.95
2018-07-26T14:54:05.396Z,33.00
2018-07-26T14:56:32.825Z,33.14
2018-07-26T14:59:00.335Z,33.14
2018-07-26T15:01:27.750Z,32.84
2018-07-26T15:03:55.004Z,32.62
2018-07-26T15:06:22.290Z,32.89
2018-07-26T15:08:49.577Z,32.80
2018-07-26T15:11:16.901Z,32.62
2018-07-26T15:13:44.151Z,32.73
2018-07-26T15:16:11.590Z,32.67
2018-07-26T15:18:38.816Z,32.96
2018-07-26T15:21:06.161Z,32.83
2018-07-26T15:23:33.430Z,32.72
2018-07-26T15:26:00.703Z,32.82
2018-07-26T15:28:27.958Z,32.64
2018-07-26T15:30:55.246Z,32.68
2018-07-26T15:33:22.555Z,32.71
2018-07-26T15:35:49.827Z,32.69
2018-07-26T15:38:17.097Z,32.70
2018-07-26T15:40:44.372Z,32.45
2018-07-26T15:43:11.655Z,32.44
2018-07-26T15:45:39.038Z,32.42
2018-07-26T15:48:06.642Z,32.52
2018-07-26T15:50:33.945Z,32.49
2018-07-26T15:53:01.296Z,32.29
2018-07-26T15:55:28.660Z,32.31
2018-07-26T15:57:55.914Z,32.38
2018-07-26T16:00:23.203Z,32.45
2018-07-26T16:02:50.440Z,32.31
2018-07-26T16:05:17.725Z,32.23
2018-07-26T16:07:44.970Z,32.35
2018-07-26T16:10:12.224Z,32.19
2018-07-26T16:12:39.522Z,31.94
2018-07-26T16:15:08.542Z,31.99
2018-07-26T16:17:37.925Z,31.92
2018-07-26T16:20:12.483Z,31.92
2018-07-26T16:22:39.780Z,31.86
2018-07-26T16:25:08.578Z,31.67
2018-07-26T16:27:35.859Z,31.71
2018-07-26T16:30:04.094Z,31.80
2018-07-26T16:32:31.378Z,31.59
2018-07-26T16:34:58.663Z,31.54
2018-07-26T16:37:26.307Z,31.64
2018-07-26T16:39:53.601Z,31.49
2018-07-26T16:42:20.832Z,31.56
2018-07-26T16:44:48.065Z,31.61
2018-07-26T16:47:15.569Z,31.50
2018-07-26T16:49:42.832Z,31.57
2018-07-26T16:52:10.106Z,31.63
2018-07-26T16:54:37.435Z,31.53
2018-07-26T16:57:11.574Z,31.51
2018-07-26T16:59:38.868Z,31.42
2018-07-26T17:02:06.181Z,31.39
2018-07-26T17:04:33.454Z,31.30
2018-07-26T17:07:00.856Z,31.22
2018-07-26T17:09:28.264Z,31.15
2018-07-26T17:11:55.549Z,31.13
2018-07-26T17:14:22.800Z,31.12
2018-07-26T17:16:50.172Z,31.08
2018-07-26T17:22:29.417Z,31.09
2018-07-26T17:24:59.932Z,31.07
2018-07-26T17:27:32.116Z,31.08
2018-07-26T17:29:59.412Z,30.93
2018-07-26T17:32:26.765Z,30.91
2018-07-26T17:34:53.982Z,30.80
2018-07-26T17:37:21.575Z,30.84
2018-07-26T17:39:48.846Z,30.74
2018-07-26T17:42:16.288Z,30.64
2018-07-26T17:44:43.543Z,30.58
2018-07-26T17:47:11.218Z,30.56
2018-07-26T17:49:38.782Z,30.47
2018-07-26T17:52:06.206Z,30.45
2018-07-26T17:54:33.635Z,30.46
2018-07-26T17:57:01.348Z,30.38
2018-07-26T17:59:28.974Z,30.34
2018-07-26T18:01:57.238Z,30.29
2018-07-26T18:04:24.676Z,30.24
2018-07-26T18:06:52.486Z,30.13
2018-07-26T18:09:19.902Z,30.11
2018-07-26T18:11:47.280Z,30.05
2018-07-26T18:14:14.682Z,29.98
2018-07-26T18:16:42.003Z,29.87
2018-07-26T18:19:09.334Z,29.80
2018-07-26T18:21:37.028Z,29.76
2018-07-26T18:24:04.883Z,29.71
2018-07-26T18:26:33.404Z,29.59
2018-07-26T18:29:00.718Z,29.57
2018-07-26T18:31:28.366Z,29.44
2018-07-26T18:33:55.872Z,29.41
2018-07-26T18:36:23.241Z,29.30
2018-07-26T18:38:50.795Z,29.25
2018-07-26T18:41:18.166Z,29.17
2018-07-26T18:43:45.500Z,29.09
2018-07-26T18:46:12.838Z,29.03
2018-07-26T18:48:40.338Z,28.93
2018-07-26T18:51:07.908Z,28.86
2018-07-26T18:53:35.351Z,28.80
2018-07-26T18:56:02.800Z,28.65
2018-07-26T18:58:30.269Z,28.52
2018-07-26T19:00:57.674Z,28.45
2018-07-26T19:03:29.045Z,28.36
2018-07-26T19:05:56.402Z,28.25
2018-07-26T19:08:23.834Z,28.18
2018-07-26T19:10:51.198Z,28.12
2018-07-26T19:13:18.629Z,28.01
2018-07-26T19:15:45.936Z,27.85
2018-07-26T19:18:13.444Z,27.77
2018-07-26T19:20:41.090Z,27.67
2018-07-26T19:23:08.572Z,27.61
2018-07-26T19:25:35.878Z,27.57
2018-07-26T19:28:03.285Z,27.51
2018-07-26T19:30:30.744Z,27.44
2018-07-26T19:32:58.336Z,27.40
2018-07-26T19:35:25.711Z,27.34
2018-07-26T19:37:53.039Z,27.29
2018-07-26T19:40:20.436Z,27.26
2018-07-26T19:42:47.879Z,27.25
2018-07-26T19:45:15.304Z,27.25
2018-07-26T19:47:42.627Z,27.14
2018-07-26T19:50:10.143Z,27.07
2018-07-26T19:52:37.509Z,27.02
2018-07-26T19:55:07.283Z,26.95
2018-07-26T19:57:35.148Z,26.90
2018-07-26T20:00:02.555Z,26.88
2018-07-26T20:02:29.872Z,26.82
2018-07-26T20:04:57.260Z,26.78
2018-07-26T20:07:25.298Z,26.78
2018-07-26T20:09:52.676Z,26.79
2018-07-26T20:12:20.046Z,26.72
2018-07-26T20:14:47.496Z,26.73
2018-07-26T20:17:14.835Z,26.72
2018-07-26T20:19:42.139Z,26.63
2018-07-26T20:22:09.506Z,26.62
2018-07-26T20:24:36.838Z,26.56
2018-07-26T20:27:04.654Z,26.52
2018-07-26T20:29:31.993Z,26.42
2018-07-26T20:31:59.479Z,26.25
2018-07-26T20:34:26.744Z,26.18
2018-07-26T20:36:55.553Z,25.95
2018-07-26T20:39:22.875Z,25.88
2018-07-26T20:41:50.130Z,25.75
2018-07-26T20:44:19.286Z,25.69
2018-07-26T20:46:46.514Z,25.66
2018-07-26T20:49:13.838Z,25.72
2018-07-26T20:51:41.680Z,25.68
2018-07-26T20:54:08.970Z,25.71
2018-07-26T20:56:36.214Z,25.72
2018-07-26T20:59:03.592Z,25.68
2018-07-26T21:01:30.822Z,25.58
2018-07-26T21:03:58.147Z,25.56
2018-07-26T21:06:25.416Z,25.59
2018-07-26T21:08:52.792Z,25.59
2018-07-26T21:11:20.066Z,25.55
2018-07-26T21:13:47.363Z,25.55
2018-07-26T21:16:14.662Z,25.60
2018-07-26T21:18:42.484Z,25.49
2018-07-26T21:21:09.826Z,25.46
2018-07-26T21:23:37.634Z,25.38
2018-07-26T21:26:05.035Z,25.28
2018-07-26T21:28:32.639Z,25.25
2018-07-26T21:31:17.474Z,25.25
2018-07-26T21:33:50.438Z,25.22
2018-07-26T21:36:18.461Z,25.08
2018-07-26T21:38:45.738Z,25.04
2018-07-26T21:41:13.290Z,24.97
2018-07-26T21:43:40.543Z,24.94
2018-07-26T21:46:07.814Z,24.98
2018-07-26T21:48:35.053Z,24.99
2018-07-26T21:51:02.365Z,25.04
2018-07-26T21:53:29.626Z,24.92
2018-07-26T21:55:56.896Z,24.82
2018-07-26T21:58:24.123Z,24.63
2018-07-26T22:00:56.714Z,24.65
2018-07-26T22:03:24.259Z,24.57
2018-07-26T22:05:51.718Z,24.53
2018-07-26T22:08:19.117Z,24.50
2018-07-26T22:10:47.438Z,24.45
2018-07-26T22:13:14.695Z,24.30
2018-07-26T22:15:41.951Z,24.23
2018-07-26T22:18:09.224Z,24.21
2018-07-26T22:20:36.514Z,24.21
2018-07-26T22:23:03.794Z,24.11
2018-07-26T22:25:31.125Z,24.12
2018-07-26T22:27:58.349Z,24.08
2018-07-26T22:30:25.650Z,24.05
2018-07-26T22:32:52.983Z,23.99
2018-07-26T22:35:20.258Z,23.97
2018-07-26T22:37:47.511Z,23.94
2018-07-26T22:40:14.814Z,23.95
2018-07-26T22:42:42.063Z,23.91
2018-07-26T22:45:09.450Z,23.91
2018-07-26T22:47:37.096Z,23.86
2018-07-26T22:50:04.854Z,23.86
2018-07-26T22:52:32.153Z,23.79
2018-07-26T22:54:59.419Z,23.70
2018-07-26T22:57:26.931Z,23.68
2018-07-26T22:59:54.463Z,23.66
2018-07-26T23:02:21.768Z,23.69
2018-07-26T23:04:49.014Z,23.70
2018-07-26T23:07:16.280Z,23.69
2018-07-26T23:09:43.622Z,23.61
2018-07-26T23:12:10.938Z,23.47
2018-07-26T23:14:38.218Z,23.41
2018-07-26T23:17:05.695Z,23.43
2018-07-26T23:19:32.974Z,23.44
2018-07-26T23:22:00.254Z,23.36
2018-07-26T23:24:27.514Z,23.09
2018-07-26T23:26:54.815Z,22.77
2018-07-26T23:29:22.109Z,22.55
2018-07-26T23:31:49.402Z,22.27
2018-07-26T23:34:16.848Z,22.13
2018-07-26T23:36:44.114Z,21.93
2018-07-26T23:39:12.449Z,21.81
2018-07-26T23:41:39.753Z,21.54
2018-07-26T23:44:07.445Z,21.41
2018-07-26T23:46:34.742Z,21.26
2018-07-26T23:49:01.992Z,21.18
2018-07-26T23:51:29.237Z,21.19
2018-07-26T23:53:56.848Z,21.26
2018-07-26T23:56:24.160Z,21.28
2018-07-26T23:58:51.743Z,21.30
